sensor_id;sensor_type;location;lat;lon;timestamp;temperature;humidity
6738;DHT22;3406;49.902;8.596;2022-09-09T00:01:02;18.20;71.30
6738;DHT22;3406;49.902;8.596;2022-09-09T00:03:36;18.20;71.40
6738;DHT22;3406;49.902;8.596;2022-09-09T00:06:10;18.20;71.60
6738;DHT22;3406;49.902;8.596;2022-09-09T00:08:44;18.10;71.60
6738;DHT22;3406;49.902;8.596;2022-09-09T00:11:17;18.10;71.80
6738;DHT22;3406;49.902;8.596;2022-09-09T00:13:51;18.00;71.80
6738;DHT22;3406;49.902;8.596;2022-09-09T00:16:21;18.00;72.00
6738;DHT22;3406;49.902;8.596;2022-09-09T00:18:57;18.00;72.10
6738;DHT22;3406;49.902;8.596;2022-09-09T00:21:33;18.00;72.30
6738;DHT22;3406;49.902;8.596;2022-09-09T00:24:09;17.90;72.30
6738;DHT22;3406;49.902;8.596;2022-09-09T00:26:42;17.90;72.50
6738;DHT22;3406;49.902;8.596;2022-09-09T00:29:17;17.90;72.70
6738;DHT22;3406;49.902;8.596;2022-09-09T00:31:48;17.90;72.80
6738;DHT22;3406;49.902;8.596;2022-09-09T00:34:21;17.90;72.90
6738;DHT22;3406;49.902;8.596;2022-09-09T00:36:52;17.80;72.80
6738;DHT22;3406;49.902;8.596;2022-09-09T00:39:25;17.80;72.90
6738;DHT22;3406;49.902;8.596;2022-09-09T00:42:08;17.80;73.00
6738;DHT22;3406;49.902;8.596;2022-09-09T00:44:37;17.70;73.00
6738;DHT22;3406;49.902;8.596;2022-09-09T00:47:17;17.70;73.30
6738;DHT22;3406;49.902;8.596;2022-09-09T00:49:54;17.70;73.50
6738;DHT22;3406;49.902;8.596;2022-09-09T00:52:35;17.60;73.50
6738;DHT22;3406;49.902;8.596;2022-09-09T00:55:07;17.60;73.60
6738;DHT22;3406;49.902;8.596;2022-09-09T00:57:38;17.60;73.70
6738;DHT22;3406;49.902;8.596;2022-09-09T01:00:21;17.60;73.80
6738;DHT22;3406;49.902;8.596;2022-09-09T01:03:07;17.60;74.00
6738;DHT22;3406;49.902;8.596;2022-09-09T01:05:44;17.60;74.00
6738;DHT22;3406;49.902;8.596;2022-09-09T01:08:23;17.60;74.20
6738;DHT22;3406;49.902;8.596;2022-09-09T01:10:55;17.60;74.30
6738;DHT22;3406;49.902;8.596;2022-09-09T01:13:25;17.60;74.30
6738;DHT22;3406;49.902;8.596;2022-09-09T01:15:57;17.60;74.40
6738;DHT22;3406;49.902;8.596;2022-09-09T01:18:27;17.60;74.40
6738;DHT22;3406;49.902;8.596;2022-09-09T01:21:02;17.60;74.50
6738;DHT22;3406;49.902;8.596;2022-09-09T01:23:41;17.60;74.50
6738;DHT22;3406;49.902;8.596;2022-09-09T01:26:23;17.60;74.60
6738;DHT22;3406;49.902;8.596;2022-09-09T01:28:52;17.60;74.70
6738;DHT22;3406;49.902;8.596;2022-09-09T01:31:21;17.60;74.80
6738;DHT22;3406;49.902;8.596;2022-09-09T01:33:48;17.60;75.00
6738;DHT22;3406;49.902;8.596;2022-09-09T01:36:21;17.50;75.00
6738;DHT22;3406;49.902;8.596;2022-09-09T01:38:50;17.60;75.20
6738;DHT22;3406;49.902;8.596;2022-09-09T01:41:17;17.60;75.30
6738;DHT22;3406;49.902;8.596;2022-09-09T01:43:45;17.60;75.30
6738;DHT22;3406;49.902;8.596;2022-09-09T01:46:12;17.60;75.30
6738;DHT22;3406;49.902;8.596;2022-09-09T01:48:40;17.60;75.40
6738;DHT22;3406;49.902;8.596;2022-09-09T01:51:08;17.60;75.40
6738;DHT22;3406;49.902;8.596;2022-09-09T01:53:36;17.60;75.40
6738;DHT22;3406;49.902;8.596;2022-09-09T01:56:11;17.60;75.40
6738;DHT22;3406;49.902;8.596;2022-09-09T01:58:50;17.60;75.50
6738;DHT22;3406;49.902;8.596;2022-09-09T02:01:35;17.60;75.50
6738;DHT22;3406;49.902;8.596;2022-09-09T02:04:30;17.50;75.60
6738;DHT22;3406;49.902;8.596;2022-09-09T02:07:00;17.50;75.80
6738;DHT22;3406;49.902;8.596;2022-09-09T02:09:30;17.50;76.00
6738;DHT22;3406;49.902;8.596;2022-09-09T02:12:01;17.50;76.10
6738;DHT22;3406;49.902;8.596;2022-09-09T02:14:37;17.50;76.20
6738;DHT22;3406;49.902;8.596;2022-09-09T02:17:09;17.50;76.20
6738;DHT22;3406;49.902;8.596;2022-09-09T02:19:38;17.50;76.30
6738;DHT22;3406;49.902;8.596;2022-09-09T02:22:06;17.50;76.30
6738;DHT22;3406;49.902;8.596;2022-09-09T02:24:36;17.50;76.30
6738;DHT22;3406;49.902;8.596;2022-09-09T02:27:05;17.60;76.60
6738;DHT22;3406;49.902;8.596;2022-09-09T02:29:38;17.60;76.60
6738;DHT22;3406;49.902;8.596;2022-09-09T02:32:11;17.60;76.60
6738;DHT22;3406;49.902;8.596;2022-09-09T02:34:42;17.60;76.70
6738;DHT22;3406;49.902;8.596;2022-09-09T02:37:11;17.70;76.80
6738;DHT22;3406;49.902;8.596;2022-09-09T02:39:38;17.70;76.80
6738;DHT22;3406;49.902;8.596;2022-09-09T02:42:05;17.70;76.80
6738;DHT22;3406;49.902;8.596;2022-09-09T02:44:32;17.70;76.80
6738;DHT22;3406;49.902;8.596;2022-09-09T02:47:13;17.80;76.90
6738;DHT22;3406;49.902;8.596;2022-09-09T02:49:51;17.80;76.90
6738;DHT22;3406;49.902;8.596;2022-09-09T02:52:27;17.80;76.90
6738;DHT22;3406;49.902;8.596;2022-09-09T02:55:02;17.90;77.00
6738;DHT22;3406;49.902;8.596;2022-09-09T02:57:31;17.90;76.90
6738;DHT22;3406;49.902;8.596;2022-09-09T03:00:00;17.90;76.90
6738;DHT22;3406;49.902;8.596;2022-09-09T03:02:28;17.90;76.90
6738;DHT22;3406;49.902;8.596;2022-09-09T03:04:55;17.90;76.90
6738;DHT22;3406;49.902;8.596;2022-09-09T03:07:23;17.90;76.80
6738;DHT22;3406;49.902;8.596;2022-09-09T03:09:49;17.90;76.90
6738;DHT22;3406;49.902;8.596;2022-09-09T03:12:16;17.90;76.90
6738;DHT22;3406;49.902;8.596;2022-09-09T03:14:43;17.90;76.90
6738;DHT22;3406;49.902;8.596;2022-09-09T03:17:11;17.80;76.90
6738;DHT22;3406;49.902;8.596;2022-09-09T03:19:39;17.80;76.90
6738;DHT22;3406;49.902;8.596;2022-09-09T03:22:07;17.80;76.90
6738;DHT22;3406;49.902;8.596;2022-09-09T03:24:35;17.80;77.00
6738;DHT22;3406;49.902;8.596;2022-09-09T03:27:01;17.80;77.00
6738;DHT22;3406;49.902;8.596;2022-09-09T03:29:28;17.70;77.10
6738;DHT22;3406;49.902;8.596;2022-09-09T03:31:55;17.70;77.20
6738;DHT22;3406;49.902;8.596;2022-09-09T03:34:21;17.70;77.30
6738;DHT22;3406;49.902;8.596;2022-09-09T03:36:49;17.70;77.40
6738;DHT22;3406;49.902;8.596;2022-09-09T03:39:16;17.70;77.50
6738;DHT22;3406;49.902;8.596;2022-09-09T03:41:43;17.70;77.60
6738;DHT22;3406;49.902;8.596;2022-09-09T03:44:13;17.60;77.50
6738;DHT22;3406;49.902;8.596;2022-09-09T03:46:39;17.60;77.60
6738;DHT22;3406;49.902;8.596;2022-09-09T03:49:06;17.60;77.70
6738;DHT22;3406;49.902;8.596;2022-09-09T03:51:33;17.60;77.80
6738;DHT22;3406;49.902;8.596;2022-09-09T03:54:03;17.60;77.80
6738;DHT22;3406;49.902;8.596;2022-09-09T03:56:30;17.60;78.00
6738;DHT22;3406;49.902;8.596;2022-09-09T03:58:57;17.60;78.00
6738;DHT22;3406;49.902;8.596;2022-09-09T04:01:24;17.60;78.00
6738;DHT22;3406;49.902;8.596;2022-09-09T04:03:50;17.50;78.00
6738;DHT22;3406;49.902;8.596;2022-09-09T04:06:18;17.50;78.20
6738;DHT22;3406;49.902;8.596;2022-09-09T04:08:46;17.40;78.20
6738;DHT22;3406;49.902;8.596;2022-09-09T04:11:15;17.40;78.30
6738;DHT22;3406;49.902;8.596;2022-09-09T04:13:42;17.40;78.40
6738;DHT22;3406;49.902;8.596;2022-09-09T04:16:10;17.40;78.60
6738;DHT22;3406;49.902;8.596;2022-09-09T04:18:38;17.30;78.50
6738;DHT22;3406;49.902;8.596;2022-09-09T04:21:05;17.30;78.60
6738;DHT22;3406;49.902;8.596;2022-09-09T04:23:33;17.30;78.80
6738;DHT22;3406;49.902;8.596;2022-09-09T04:26:01;17.30;78.80
6738;DHT22;3406;49.902;8.596;2022-09-09T04:28:31;17.30;79.00
6738;DHT22;3406;49.902;8.596;2022-09-09T04:31:04;17.30;79.10
6738;DHT22;3406;49.902;8.596;2022-09-09T04:33:31;17.30;79.10
6738;DHT22;3406;49.902;8.596;2022-09-09T04:35:57;17.30;79.20
6738;DHT22;3406;49.902;8.596;2022-09-09T04:38:25;17.30;79.20
6738;DHT22;3406;49.902;8.596;2022-09-09T04:40:51;17.30;79.20
6738;DHT22;3406;49.902;8.596;2022-09-09T04:43:19;17.30;79.30
6738;DHT22;3406;49.902;8.596;2022-09-09T04:45:49;17.30;79.30
6738;DHT22;3406;49.902;8.596;2022-09-09T04:48:17;17.30;79.30
6738;DHT22;3406;49.902;8.596;2022-09-09T04:50:44;17.30;79.40
6738;DHT22;3406;49.902;8.596;2022-09-09T04:53:11;17.30;79.40
6738;DHT22;3406;49.902;8.596;2022-09-09T04:55:38;17.30;79.60
6738;DHT22;3406;49.902;8.596;2022-09-09T04:58:05;17.20;79.70
6738;DHT22;3406;49.902;8.596;2022-09-09T05:00:32;17.20;80.50
6738;DHT22;3406;49.902;8.596;2022-09-09T05:03:03;17.20;80.00
6738;DHT22;3406;49.902;8.596;2022-09-09T05:05:31;17.10;80.20
6738;DHT22;3406;49.902;8.596;2022-09-09T05:08:01;17.00;80.30
6738;DHT22;3406;49.902;8.596;2022-09-09T05:10:29;17.00;80.50
6738;DHT22;3406;49.902;8.596;2022-09-09T05:12:55;17.00;80.60
6738;DHT22;3406;49.902;8.596;2022-09-09T05:15:22;17.00;80.80
6738;DHT22;3406;49.902;8.596;2022-09-09T05:17:49;17.00;81.00
6738;DHT22;3406;49.902;8.596;2022-09-09T05:20:19;17.00;81.10
6738;DHT22;3406;49.902;8.596;2022-09-09T05:22:46;17.00;81.20
6738;DHT22;3406;49.902;8.596;2022-09-09T05:25:13;17.00;81.30
6738;DHT22;3406;49.902;8.596;2022-09-09T05:27:40;17.00;81.40
6738;DHT22;3406;49.902;8.596;2022-09-09T05:30:07;17.10;81.30
6738;DHT22;3406;49.902;8.596;2022-09-09T05:32:34;17.10;81.30
6738;DHT22;3406;49.902;8.596;2022-09-09T05:35:01;17.10;81.40
6738;DHT22;3406;49.902;8.596;2022-09-09T05:37:30;17.00;81.40
6738;DHT22;3406;49.902;8.596;2022-09-09T05:39:57;17.00;81.60
6738;DHT22;3406;49.902;8.596;2022-09-09T05:42:24;17.00;81.70
6738;DHT22;3406;49.902;8.596;2022-09-09T05:44:51;17.00;81.70
6738;DHT22;3406;49.902;8.596;2022-09-09T05:47:19;17.00;81.80
6738;DHT22;3406;49.902;8.596;2022-09-09T05:49:46;17.00;81.90
6738;DHT22;3406;49.902;8.596;2022-09-09T05:52:12;17.00;82.00
6738;DHT22;3406;49.902;8.596;2022-09-09T05:54:40;17.00;82.10
6738;DHT22;3406;49.902;8.596;2022-09-09T05:57:08;17.00;82.10
6738;DHT22;3406;49.902;8.596;2022-09-09T05:59:35;17.00;82.20
6738;DHT22;3406;49.902;8.596;2022-09-09T06:02:02;17.00;82.20
6738;DHT22;3406;49.902;8.596;2022-09-09T06:04:28;17.00;82.30
6738;DHT22;3406;49.902;8.596;2022-09-09T06:06:55;17.10;82.50
6738;DHT22;3406;49.902;8.596;2022-09-09T06:09:22;17.20;82.60
6738;DHT22;3406;49.902;8.596;2022-09-09T06:11:50;17.30;82.60
6738;DHT22;3406;49.902;8.596;2022-09-09T06:14:17;17.40;82.50
6738;DHT22;3406;49.902;8.596;2022-09-09T06:16:44;17.40;82.30
6738;DHT22;3406;49.902;8.596;2022-09-09T06:19:10;17.50;82.30
6738;DHT22;3406;49.902;8.596;2022-09-09T06:21:38;17.60;82.10
6738;DHT22;3406;49.902;8.596;2022-09-09T06:24:05;17.60;82.00
6738;DHT22;3406;49.902;8.596;2022-09-09T06:26:34;17.70;81.80
6738;DHT22;3406;49.902;8.596;2022-09-09T06:29:03;17.70;81.60
6738;DHT22;3406;49.902;8.596;2022-09-09T06:31:31;17.80;81.50
6738;DHT22;3406;49.902;8.596;2022-09-09T06:33:59;17.80;81.40
6738;DHT22;3406;49.902;8.596;2022-09-09T06:36:27;17.90;81.30
6738;DHT22;3406;49.902;8.596;2022-09-09T06:38:55;17.90;81.30
6738;DHT22;3406;49.902;8.596;2022-09-09T06:41:24;18.00;81.30
6738;DHT22;3406;49.902;8.596;2022-09-09T06:43:51;18.00;81.00
6738;DHT22;3406;49.902;8.596;2022-09-09T06:46:20;18.00;80.70
6738;DHT22;3406;49.902;8.596;2022-09-09T06:48:48;18.10;80.70
6738;DHT22;3406;49.902;8.596;2022-09-09T06:51:16;18.20;80.70
6738;DHT22;3406;49.902;8.596;2022-09-09T06:53:44;18.20;80.50
6738;DHT22;3406;49.902;8.596;2022-09-09T06:56:19;18.30;80.40
6738;DHT22;3406;49.902;8.596;2022-09-09T06:58:47;18.30;80.10
6738;DHT22;3406;49.902;8.596;2022-09-09T07:01:16;18.30;80.00
6738;DHT22;3406;49.902;8.596;2022-09-09T07:03:47;18.40;79.90
6738;DHT22;3406;49.902;8.596;2022-09-09T07:06:17;18.40;79.70
6738;DHT22;3406;49.902;8.596;2022-09-09T07:08:47;18.40;79.60
6738;DHT22;3406;49.902;8.596;2022-09-09T07:11:14;18.40;79.40
6738;DHT22;3406;49.902;8.596;2022-09-09T07:13:41;18.30;79.20
6738;DHT22;3406;49.902;8.596;2022-09-09T07:16:09;18.40;79.20
6738;DHT22;3406;49.902;8.596;2022-09-09T07:18:36;18.30;79.10
6738;DHT22;3406;49.902;8.596;2022-09-09T07:21:04;18.40;79.20
6738;DHT22;3406;49.902;8.596;2022-09-09T07:23:32;18.40;79.20
6738;DHT22;3406;49.902;8.596;2022-09-09T07:26:00;18.50;79.10
6738;DHT22;3406;49.902;8.596;2022-09-09T07:28:27;18.50;79.00
6738;DHT22;3406;49.902;8.596;2022-09-09T07:30:54;18.50;78.90
6738;DHT22;3406;49.902;8.596;2022-09-09T07:33:21;18.60;78.80
6738;DHT22;3406;49.902;8.596;2022-09-09T07:35:48;18.60;78.60
6738;DHT22;3406;49.902;8.596;2022-09-09T07:38:16;18.60;78.60
6738;DHT22;3406;49.902;8.596;2022-09-09T07:40:43;18.60;78.50
6738;DHT22;3406;49.902;8.596;2022-09-09T07:43:10;18.70;78.50
6738;DHT22;3406;49.902;8.596;2022-09-09T07:45:37;18.70;78.40
6738;DHT22;3406;49.902;8.596;2022-09-09T07:48:05;18.70;78.30
6738;DHT22;3406;49.902;8.596;2022-09-09T07:50:32;18.80;78.30
6738;DHT22;3406;49.902;8.596;2022-09-09T07:52:59;18.80;78.10
6738;DHT22;3406;49.902;8.596;2022-09-09T07:55:27;18.90;78.00
6738;DHT22;3406;49.902;8.596;2022-09-09T07:57:53;18.90;77.80
6738;DHT22;3406;49.902;8.596;2022-09-09T08:00:22;19.00;77.80
6738;DHT22;3406;49.902;8.596;2022-09-09T08:02:49;19.10;77.70
6738;DHT22;3406;49.902;8.596;2022-09-09T08:05:16;19.20;77.50
6738;DHT22;3406;49.902;8.596;2022-09-09T08:07:43;19.30;77.40
6738;DHT22;3406;49.902;8.596;2022-09-09T08:10:11;19.40;77.20
6738;DHT22;3406;49.902;8.596;2022-09-09T08:12:41;19.40;76.70
6738;DHT22;3406;49.902;8.596;2022-09-09T08:15:08;19.40;76.30
6738;DHT22;3406;49.902;8.596;2022-09-09T08:17:34;19.40;76.20
6738;DHT22;3406;49.902;8.596;2022-09-09T08:20:03;19.40;76.10
6738;DHT22;3406;49.902;8.596;2022-09-09T08:22:32;19.40;76.20
6738;DHT22;3406;49.902;8.596;2022-09-09T08:24:59;19.50;76.40
6738;DHT22;3406;49.902;8.596;2022-09-09T08:27:27;19.50;76.00
6738;DHT22;3406;49.902;8.596;2022-09-09T08:29:55;19.50;75.60
6738;DHT22;3406;49.902;8.596;2022-09-09T08:32:22;19.50;75.30
6738;DHT22;3406;49.902;8.596;2022-09-09T08:34:48;19.60;75.90
6738;DHT22;3406;49.902;8.596;2022-09-09T08:37:16;19.70;75.00
6738;DHT22;3406;49.902;8.596;2022-09-09T08:39:44;19.70;75.30
6738;DHT22;3406;49.902;8.596;2022-09-09T08:42:37;19.80;74.20
6738;DHT22;3406;49.902;8.596;2022-09-09T08:45:21;19.80;73.80
6738;DHT22;3406;49.902;8.596;2022-09-09T08:47:58;19.70;73.70
6738;DHT22;3406;49.902;8.596;2022-09-09T08:50:28;19.70;73.80
6738;DHT22;3406;49.902;8.596;2022-09-09T08:53:01;19.70;73.60
6738;DHT22;3406;49.902;8.596;2022-09-09T08:55:37;19.80;73.60
6738;DHT22;3406;49.902;8.596;2022-09-09T08:58:11;19.80;73.50
6738;DHT22;3406;49.902;8.596;2022-09-09T09:00:49;19.80;73.40
6738;DHT22;3406;49.902;8.596;2022-09-09T09:03:24;19.80;73.10
6738;DHT22;3406;49.902;8.596;2022-09-09T09:06:01;19.80;72.90
6738;DHT22;3406;49.902;8.596;2022-09-09T09:08:35;19.80;72.80
6738;DHT22;3406;49.902;8.596;2022-09-09T09:11:06;19.90;72.90
6738;DHT22;3406;49.902;8.596;2022-09-09T09:13:38;19.90;72.70
6738;DHT22;3406;49.902;8.596;2022-09-09T09:16:26;19.80;72.80
6738;DHT22;3406;49.902;8.596;2022-09-09T09:18:58;19.90;73.00
6738;DHT22;3406;49.902;8.596;2022-09-09T09:21:31;19.90;72.70
6738;DHT22;3406;49.902;8.596;2022-09-09T09:24:01;19.80;72.80
6738;DHT22;3406;49.902;8.596;2022-09-09T09:26:32;19.80;73.10
6738;DHT22;3406;49.902;8.596;2022-09-09T09:29:03;19.70;73.60
6738;DHT22;3406;49.902;8.596;2022-09-09T09:31:36;19.70;74.10
6738;DHT22;3406;49.902;8.596;2022-09-09T09:34:02;19.90;74.40
6738;DHT22;3406;49.902;8.596;2022-09-09T09:36:35;20.20;74.50
6738;DHT22;3406;49.902;8.596;2022-09-09T09:39:04;20.60;74.30
6738;DHT22;3406;49.902;8.596;2022-09-09T09:41:34;20.90;73.60
6738;DHT22;3406;49.902;8.596;2022-09-09T09:44:02;21.20;73.10
6738;DHT22;3406;49.902;8.596;2022-09-09T09:46:30;21.20;72.20
6738;DHT22;3406;49.902;8.596;2022-09-09T09:48:59;21.10;71.40
6738;DHT22;3406;49.902;8.596;2022-09-09T09:51:27;21.00;71.10
6738;DHT22;3406;49.902;8.596;2022-09-09T09:53:54;21.00;71.10
6738;DHT22;3406;49.902;8.596;2022-09-09T09:56:31;21.00;70.90
6738;DHT22;3406;49.902;8.596;2022-09-09T09:58:58;21.10;71.00
6738;DHT22;3406;49.902;8.596;2022-09-09T10:01:27;21.30;70.00
6738;DHT22;3406;49.902;8.596;2022-09-09T10:03:59;21.50;69.70
6738;DHT22;3406;49.902;8.596;2022-09-09T10:06:30;21.80;68.80
6738;DHT22;3406;49.902;8.596;2022-09-09T10:08:59;21.90;68.20
6738;DHT22;3406;49.902;8.596;2022-09-09T10:11:38;21.90;67.70
6738;DHT22;3406;49.902;8.596;2022-09-09T10:14:15;21.80;67.40
6738;DHT22;3406;49.902;8.596;2022-09-09T10:16:54;21.80;67.40
6738;DHT22;3406;49.902;8.596;2022-09-09T10:19:30;21.60;66.80
6738;DHT22;3406;49.902;8.596;2022-09-09T10:22:04;21.70;66.80
6738;DHT22;3406;49.902;8.596;2022-09-09T10:24:48;21.80;66.20
6738;DHT22;3406;49.902;8.596;2022-09-09T10:27:20;21.90;66.00
6738;DHT22;3406;49.902;8.596;2022-09-09T10:30:09;22.00;65.50
6738;DHT22;3406;49.902;8.596;2022-09-09T10:32:41;22.00;65.10
6738;DHT22;3406;49.902;8.596;2022-09-09T10:35:22;22.10;64.60
6738;DHT22;3406;49.902;8.596;2022-09-09T10:38:13;22.20;64.10
6738;DHT22;3406;49.902;8.596;2022-09-09T10:40:46;22.10;63.30
6738;DHT22;3406;49.902;8.596;2022-09-09T10:43:25;21.90;63.30
6738;DHT22;3406;49.902;8.596;2022-09-09T10:46:02;21.80;63.70
6738;DHT22;3406;49.902;8.596;2022-09-09T10:48:35;21.80;63.90
6738;DHT22;3406;49.902;8.596;2022-09-09T10:51:13;21.80;63.90
6738;DHT22;3406;49.902;8.596;2022-09-09T10:53:53;22.00;64.00
6738;DHT22;3406;49.902;8.596;2022-09-09T10:56:27;22.20;63.80
6738;DHT22;3406;49.902;8.596;2022-09-09T10:58:58;22.40;63.30
6738;DHT22;3406;49.902;8.596;2022-09-09T11:01:29;22.60;63.00
6738;DHT22;3406;49.902;8.596;2022-09-09T11:04:00;22.80;62.40
6738;DHT22;3406;49.902;8.596;2022-09-09T11:06:34;22.80;61.80
6738;DHT22;3406;49.902;8.596;2022-09-09T11:09:03;22.80;61.30
6738;DHT22;3406;49.902;8.596;2022-09-09T11:11:35;22.80;60.70
6738;DHT22;3406;49.902;8.596;2022-09-09T11:14:10;22.80;59.70
6738;DHT22;3406;49.902;8.596;2022-09-09T11:16:41;22.80;59.30
6738;DHT22;3406;49.902;8.596;2022-09-09T11:19:14;22.70;58.80
6738;DHT22;3406;49.902;8.596;2022-09-09T11:21:45;22.70;58.70
6738;DHT22;3406;49.902;8.596;2022-09-09T11:24:17;22.80;58.70
6738;DHT22;3406;49.902;8.596;2022-09-09T11:26:49;22.80;58.20
6738;DHT22;3406;49.902;8.596;2022-09-09T11:32:32;22.90;57.90
6738;DHT22;3406;49.902;8.596;2022-09-09T11:35:14;23.00;57.20
6738;DHT22;3406;49.902;8.596;2022-09-09T11:38:23;23.20;57.30
6738;DHT22;3406;49.902;8.596;2022-09-09T11:40:55;23.50;57.10
6738;DHT22;3406;49.902;8.596;2022-09-09T11:43:25;23.60;56.60
6738;DHT22;3406;49.902;8.596;2022-09-09T11:45:55;23.60;56.50
6738;DHT22;3406;49.902;8.596;2022-09-09T11:48:28;23.70;56.70
6738;DHT22;3406;49.902;8.596;2022-09-09T11:51:00;23.70;56.60
6738;DHT22;3406;49.902;8.596;2022-09-09T11:53:30;23.50;56.80
6738;DHT22;3406;49.902;8.596;2022-09-09T11:56:09;23.40;57.30
6738;DHT22;3406;49.902;8.596;2022-09-09T11:58:44;23.20;57.40
6738;DHT22;3406;49.902;8.596;2022-09-09T12:01:28;23.10;57.70
6738;DHT22;3406;49.902;8.596;2022-09-09T12:04:32;23.00;57.90
6738;DHT22;3406;49.902;8.596;2022-09-09T12:07:04;23.00;57.90
6738;DHT22;3406;49.902;8.596;2022-09-09T12:09:45;23.00;57.90
6738;DHT22;3406;49.902;8.596;2022-09-09T12:12:24;22.90;58.00
6738;DHT22;3406;49.902;8.596;2022-09-09T12:15:00;22.80;58.30
6738;DHT22;3406;49.902;8.596;2022-09-09T12:17:29;22.70;58.50
6738;DHT22;3406;49.902;8.596;2022-09-09T12:20:12;22.80;58.90
6738;DHT22;3406;49.902;8.596;2022-09-09T12:23:01;23.00;58.80
6738;DHT22;3406;49.902;8.596;2022-09-09T12:25:36;23.10;58.70
6738;DHT22;3406;49.902;8.596;2022-09-09T12:28:09;23.10;58.40
6738;DHT22;3406;49.902;8.596;2022-09-09T12:30:43;23.00;58.20
6738;DHT22;3406;49.902;8.596;2022-09-09T12:33:16;23.00;58.20
6738;DHT22;3406;49.902;8.596;2022-09-09T12:35:44;22.80;58.10
6738;DHT22;3406;49.902;8.596;2022-09-09T12:38:21;22.60;58.70
6738;DHT22;3406;49.902;8.596;2022-09-09T12:40:56;22.40;60.30
6738;DHT22;3406;49.902;8.596;2022-09-09T12:43:24;22.20;60.50
6738;DHT22;3406;49.902;8.596;2022-09-09T12:45:57;22.00;61.00
6738;DHT22;3406;49.902;8.596;2022-09-09T12:48:30;21.90;61.20
6738;DHT22;3406;49.902;8.596;2022-09-09T12:50:57;21.90;60.90
6738;DHT22;3406;49.902;8.596;2022-09-09T12:53:29;21.90;59.70
6738;DHT22;3406;49.902;8.596;2022-09-09T12:55:59;21.90;58.50
6738;DHT22;3406;49.902;8.596;2022-09-09T12:58:29;21.90;57.80
6738;DHT22;3406;49.902;8.596;2022-09-09T13:00:58;21.90;57.20
6738;DHT22;3406;49.902;8.596;2022-09-09T13:03:25;21.80;56.80
6738;DHT22;3406;49.902;8.596;2022-09-09T13:05:54;21.80;56.50
6738;DHT22;3406;49.902;8.596;2022-09-09T13:08:25;21.70;55.20
6738;DHT22;3406;49.902;8.596;2022-09-09T13:10:55;21.50;55.00
6738;DHT22;3406;49.902;8.596;2022-09-09T13:13:27;21.30;55.40
6738;DHT22;3406;49.902;8.596;2022-09-09T13:15:57;21.20;55.00
6738;DHT22;3406;49.902;8.596;2022-09-09T13:18:26;21.10;55.00
6738;DHT22;3406;49.902;8.596;2022-09-09T13:20:54;21.00;54.80
6738;DHT22;3406;49.902;8.596;2022-09-09T13:23:27;20.90;55.10
6738;DHT22;3406;49.902;8.596;2022-09-09T13:25:56;20.90;55.40
6738;DHT22;3406;49.902;8.596;2022-09-09T13:28:27;20.80;55.40
6738;DHT22;3406;49.902;8.596;2022-09-09T13:30:56;20.80;55.60
6738;DHT22;3406;49.902;8.596;2022-09-09T13:33:29;20.70;55.80
6738;DHT22;3406;49.902;8.596;2022-09-09T13:36:00;20.70;55.90
6738;DHT22;3406;49.902;8.596;2022-09-09T13:38:30;20.60;56.00
6738;DHT22;3406;49.902;8.596;2022-09-09T13:41:00;20.60;56.20
6738;DHT22;3406;49.902;8.596;2022-09-09T13:43:33;20.60;56.30
6738;DHT22;3406;49.902;8.596;2022-09-09T13:46:02;20.60;56.40
6738;DHT22;3406;49.902;8.596;2022-09-09T13:48:29;20.60;56.50
6738;DHT22;3406;49.902;8.596;2022-09-09T13:50:59;20.80;56.60
6738;DHT22;3406;49.902;8.596;2022-09-09T13:53:26;21.10;56.70
6738;DHT22;3406;49.902;8.596;2022-09-09T13:55:53;21.30;56.50
6738;DHT22;3406;49.902;8.596;2022-09-09T13:58:22;21.50;56.40
6738;DHT22;3406;49.902;8.596;2022-09-09T14:00:52;21.70;56.50
6738;DHT22;3406;49.902;8.596;2022-09-09T14:03:20;21.80;56.40
6738;DHT22;3406;49.902;8.596;2022-09-09T14:05:47;21.80;56.40
6738;DHT22;3406;49.902;8.596;2022-09-09T14:08:20;21.70;56.40
6738;DHT22;3406;49.902;8.596;2022-09-09T14:10:48;21.60;56.30
6738;DHT22;3406;49.902;8.596;2022-09-09T14:13:15;21.50;56.50
6738;DHT22;3406;49.902;8.596;2022-09-09T14:15:42;21.50;56.60
6738;DHT22;3406;49.902;8.596;2022-09-09T14:18:11;21.40;56.60
6738;DHT22;3406;49.902;8.596;2022-09-09T14:20:39;21.30;56.80
6738;DHT22;3406;49.902;8.596;2022-09-09T14:23:10;21.20;57.00
6738;DHT22;3406;49.902;8.596;2022-09-09T14:25:39;21.10;57.40
6738;DHT22;3406;49.902;8.596;2022-09-09T14:28:09;21.10;57.60
6738;DHT22;3406;49.902;8.596;2022-09-09T14:30:37;21.00;57.90
6738;DHT22;3406;49.902;8.596;2022-09-09T14:33:29;20.90;58.40
6738;DHT22;3406;49.902;8.596;2022-09-09T14:35:57;20.80;58.90
6738;DHT22;3406;49.902;8.596;2022-09-09T14:38:24;20.80;59.50
6738;DHT22;3406;49.902;8.596;2022-09-09T14:40:51;20.80;59.80
6738;DHT22;3406;49.902;8.596;2022-09-09T14:43:18;20.80;60.30
6738;DHT22;3406;49.902;8.596;2022-09-09T14:45:45;20.70;60.80
6738;DHT22;3406;49.902;8.596;2022-09-09T14:48:13;20.70;61.20
6738;DHT22;3406;49.902;8.596;2022-09-09T14:50:41;20.70;61.30
6738;DHT22;3406;49.902;8.596;2022-09-09T14:53:08;20.80;61.50
6738;DHT22;3406;49.902;8.596;2022-09-09T14:55:37;20.80;61.70
6738;DHT22;3406;49.902;8.596;2022-09-09T14:58:04;20.80;61.70
6738;DHT22;3406;49.902;8.596;2022-09-09T15:00:32;20.90;61.70
6738;DHT22;3406;49.902;8.596;2022-09-09T15:02:59;20.90;61.70
6738;DHT22;3406;49.902;8.596;2022-09-09T15:05:26;20.90;61.60
6738;DHT22;3406;49.902;8.596;2022-09-09T15:07:54;21.00;61.70
6738;DHT22;3406;49.902;8.596;2022-09-09T15:10:22;21.00;61.50
6738;DHT22;3406;49.902;8.596;2022-09-09T15:12:49;21.00;61.40
6738;DHT22;3406;49.902;8.596;2022-09-09T15:15:15;21.00;61.40
6738;DHT22;3406;49.902;8.596;2022-09-09T15:17:42;21.00;61.40
6738;DHT22;3406;49.902;8.596;2022-09-09T15:20:09;21.00;61.50
6738;DHT22;3406;49.902;8.596;2022-09-09T15:22:36;21.00;61.40
6738;DHT22;3406;49.902;8.596;2022-09-09T15:25:05;21.00;61.40
6738;DHT22;3406;49.902;8.596;2022-09-09T15:27:33;21.00;61.30
6738;DHT22;3406;49.902;8.596;2022-09-09T15:30:00;21.10;61.40
6738;DHT22;3406;49.902;8.596;2022-09-09T15:32:27;21.10;61.40
6738;DHT22;3406;49.902;8.596;2022-09-09T15:34:54;21.20;61.40
6738;DHT22;3406;49.902;8.596;2022-09-09T15:37:27;21.30;61.30
6738;DHT22;3406;49.902;8.596;2022-09-09T15:39:53;21.40;61.40
6738;DHT22;3406;49.902;8.596;2022-09-09T15:42:21;21.40;61.60
6738;DHT22;3406;49.902;8.596;2022-09-09T15:44:48;21.40;62.00
6738;DHT22;3406;49.902;8.596;2022-09-09T15:47:15;21.50;62.30
6738;DHT22;3406;49.902;8.596;2022-09-09T15:49:42;21.40;62.30
6738;DHT22;3406;49.902;8.596;2022-09-09T15:52:09;21.40;62.80
6738;DHT22;3406;49.902;8.596;2022-09-09T15:54:37;21.30;63.30
6738;DHT22;3406;49.902;8.596;2022-09-09T15:57:06;21.30;63.80
6738;DHT22;3406;49.902;8.596;2022-09-09T15:59:35;21.20;64.10
6738;DHT22;3406;49.902;8.596;2022-09-09T16:02:02;21.10;64.20
6738;DHT22;3406;49.902;8.596;2022-09-09T16:04:29;21.10;64.40
6738;DHT22;3406;49.902;8.596;2022-09-09T16:06:59;21.00;64.40
6738;DHT22;3406;49.902;8.596;2022-09-09T16:09:27;20.90;64.70
6738;DHT22;3406;49.902;8.596;2022-09-09T16:11:56;20.80;64.80
6738;DHT22;3406;49.902;8.596;2022-09-09T16:14:23;20.80;65.00
6738;DHT22;3406;49.902;8.596;2022-09-09T16:16:52;20.80;65.20
6738;DHT22;3406;49.902;8.596;2022-09-09T16:19:19;20.80;65.40
6738;DHT22;3406;49.902;8.596;2022-09-09T16:21:48;20.80;65.60
6738;DHT22;3406;49.902;8.596;2022-09-09T16:24:17;20.80;65.80
6738;DHT22;3406;49.902;8.596;2022-09-09T16:26:46;20.70;66.00